createdAt,value
2023-05-08T00:01:31.252Z,33.88
2023-05-08T00:03:58.513Z,34.12
2023-05-08T00:06:27.398Z,34.26
2023-05-08T00:08:55.481Z,34.33
2023-05-08T00:11:22.363Z,34.29
2023-05-08T00:13:50.263Z,34.34
2023-05-08T00:16:17.383Z,34.42
2023-05-08T00:18:44.261Z,34.53
2023-05-08T00:21:11.176Z,34.75
2023-05-08T00:23:38.069Z,34.94
2023-05-08T00:26:05.009Z,34.90
2023-05-08T00:28:32.401Z,34.83
2023-05-08T00:31:01.475Z,34.87
2023-05-08T00:33:28.433Z,35.00
2023-05-08T00:36:02.015Z,34.97
2023-05-08T00:38:34.003Z,34.89
2023-05-08T00:41:01.209Z,35.04
2023-05-08T00:43:29.214Z,35.15
2023-05-08T00:45:56.606Z,35.29
2023-05-08T00:48:23.636Z,35.37
2023-05-08T00:50:51.711Z,35.30
2023-05-08T00:53:19.123Z,35.38
2023-05-08T00:55:45.927Z,35.40
2023-05-08T00:58:13.204Z,35.55
2023-05-08T01:00:41.292Z,35.75
2023-05-08T01:03:08.987Z,35.89
2023-05-08T01:05:37.569Z,35.95
2023-05-08T01:08:04.591Z,35.73
2023-05-08T01:10:53.766Z,35.94
2023-05-08T01:13:55.910Z,35.99
2023-05-08T01:16:44.097Z,35.96
2023-05-08T01:19:48.482Z,35.98
2023-05-08T01:22:31.676Z,35.74
2023-05-08T01:25:23.871Z,36.16
2023-05-08T01:28:34.348Z,36.04
2023-05-08T01:31:38.901Z,36.06
2023-05-08T01:34:11.951Z,35.89
2023-05-08T01:37:07.008Z,35.91
2023-05-08T01:39:55.507Z,36.21
2023-05-08T01:42:31.041Z,35.98
2023-05-08T01:45:01.711Z,36.10
2023-05-08T01:47:30.666Z,36.06
2023-05-08T01:50:06.910Z,36.01
2023-05-08T01:52:51.913Z,36.27
2023-05-08T01:55:21.517Z,36.13
2023-05-08T01:57:49.005Z,36.14
2023-05-08T02:00:17.716Z,36.21
2023-05-08T02:02:47.715Z,36.04
2023-05-08T02:05:15.072Z,36.06
2023-05-08T02:07:43.237Z,35.88
2023-05-08T02:10:10.195Z,36.22
2023-05-08T02:12:37.968Z,36.09
2023-05-08T02:15:05.522Z,36.25
2023-05-08T02:17:32.705Z,36.22
2023-05-08T02:19:59.783Z,36.11
2023-05-08T02:22:27.253Z,36.19
2023-05-08T02:24:55.589Z,36.39
2023-05-08T02:27:23.565Z,36.48
2023-05-08T02:29:51.859Z,36.70
2023-05-08T02:32:19.360Z,37.03
2023-05-08T02:34:58.933Z,36.95
2023-05-08T02:37:30.228Z,37.12
2023-05-08T02:39:57.235Z,37.11
2023-05-08T02:42:24.258Z,37.00
2023-05-08T02:44:51.070Z,36.98
2023-05-08T02:47:24.314Z,37.14
2023-05-08T02:49:56.103Z,36.95
2023-05-08T02:52:29.555Z,36.98
2023-05-08T02:55:03.187Z,36.91
2023-05-08T02:57:39.905Z,36.98
2023-05-08T03:00:16.446Z,36.86
2023-05-08T03:02:47.733Z,36.81
2023-05-08T03:05:29.195Z,36.96
2023-05-08T03:07:58.688Z,36.83
2023-05-08T03:10:31.540Z,36.64
2023-05-08T03:12:59.632Z,36.67
2023-05-08T03:15:33.757Z,36.55
2023-05-08T03:18:03.681Z,36.60
2023-05-08T03:20:32.016Z,36.57
2023-05-08T03:22:58.818Z,36.58
2023-05-08T03:25:25.677Z,36.40
2023-05-08T03:27:52.566Z,36.28
2023-05-08T03:30:19.431Z,36.32
2023-05-08T03:32:54.127Z,36.36
2023-05-08T03:35:20.991Z,36.43
2023-05-08T03:37:47.871Z,36.24
2023-05-08T03:40:15.188Z,36.10
2023-05-08T03:42:42.320Z,36.36
2023-05-08T03:45:09.585Z,36.36
2023-05-08T03:47:37.387Z,36.10
2023-05-08T03:50:04.999Z,35.96
2023-05-08T03:52:33.554Z,36.11
2023-05-08T03:55:04.122Z,35.98
2023-05-08T03:57:38.906Z,36.10
2023-05-08T04:00:15.288Z,35.82
2023-05-08T04:02:52.181Z,35.71
2023-05-08T04:05:21.147Z,35.69
2023-05-08T04:08:07.226Z,35.59
2023-05-08T04:10:43.824Z,35.57
2023-05-08T04:13:15.592Z,35.22
2023-05-08T04:15:52.369Z,35.32
2023-05-08T04:18:28.792Z,35.68
2023-05-08T04:21:02.672Z,35.44
2023-05-08T04:23:30.039Z,35.09
2023-05-08T04:25:57.357Z,35.32
2023-05-08T04:28:24.512Z,35.02
2023-05-08T04:30:51.843Z,34.60
2023-05-08T04:33:19.353Z,34.87
2023-05-08T04:35:46.750Z,34.82
2023-05-08T04:38:14.989Z,34.64
2023-05-08T04:40:41.955Z,34.64
2023-05-08T04:43:10.100Z,34.80
2023-05-08T04:45:37.966Z,34.63
2023-05-08T04:48:05.474Z,34.64
2023-05-08T04:50:32.330Z,34.35
2023-05-08T04:52:59.284Z,34.44
2023-05-08T04:55:26.635Z,34.44
2023-05-08T04:57:53.583Z,34.42
2023-05-08T05:00:20.492Z,34.08
2023-05-08T05:02:48.086Z,34.26
2023-05-08T05:05:18.582Z,34.02
2023-05-08T05:07:45.523Z,34.11
2023-05-08T05:10:12.389Z,34.31
2023-05-08T05:12:39.686Z,33.41
2023-05-08T05:15:07.029Z,33.59
2023-05-08T05:17:34.792Z,33.62
2023-05-08T05:20:02.532Z,33.82
2023-05-08T05:22:30.217Z,33.72
2023-05-08T05:24:57.269Z,33.61
2023-05-08T05:27:24.637Z,33.32
2023-05-08T05:29:53.186Z,33.33
2023-05-08T05:32:20.203Z,33.33
2023-05-08T05:34:48.459Z,33.61
2023-05-08T05:37:15.284Z,33.65
2023-05-08T05:39:42.117Z,33.19
2023-05-08T05:42:09.159Z,32.83
2023-05-08T05:44:37.087Z,32.95
2023-05-08T05:47:05.165Z,33.49
2023-05-08T05:49:33.917Z,33.41
2023-05-08T05:52:01.478Z,33.08
2023-05-08T05:54:28.979Z,33.01
2023-05-08T05:56:55.802Z,33.21
2023-05-08T05:59:22.920Z,32.65
2023-05-08T06:01:50.341Z,32.63
2023-05-08T06:04:18.416Z,32.63
2023-05-08T06:06:45.657Z,32.47
2023-05-08T06:09:12.710Z,32.28
2023-05-08T06:11:40.002Z,32.33
2023-05-08T06:14:07.719Z,32.30
2023-05-08T06:16:35.107Z,31.73
2023-05-08T06:19:01.996Z,32.03
2023-05-08T06:21:29.110Z,31.83
2023-05-08T06:23:55.906Z,31.78
2023-05-08T06:26:23.406Z,31.45
2023-05-08T06:28:52.660Z,31.44
2023-05-08T06:31:19.576Z,31.62
2023-05-08T06:33:46.750Z,31.30
2023-05-08T06:36:13.484Z,31.18
2023-05-08T06:38:40.557Z,30.82
2023-05-08T06:41:07.581Z,30.56
2023-05-08T06:43:34.319Z,31.14
2023-05-08T06:46:01.304Z,31.09
2023-05-08T06:48:28.610Z,30.86
2023-05-08T06:50:55.996Z,30.60
2023-05-08T06:53:23.739Z,30.51
2023-05-08T06:55:51.107Z,30.25
2023-05-08T06:58:17.886Z,29.51
2023-05-08T07:00:45.702Z,30.05
2023-05-08T07:03:12.624Z,29.23
2023-05-08T07:05:39.544Z,28.59
2023-05-08T07:08:06.873Z,28.92
2023-05-08T07:10:33.763Z,29.40
2023-05-08T07:13:00.689Z,29.83
2023-05-08T07:15:28.666Z,29.51
2023-05-08T07:17:55.730Z,29.22
2023-05-08T07:20:23.773Z,29.30
2023-05-08T07:22:50.592Z,29.31
2023-05-08T07:25:17.536Z,27.79
2023-05-08T07:27:44.912Z,28.14
2023-05-08T07:30:12.290Z,28.69
2023-05-08T07:32:39.668Z,28.87
2023-05-08T07:35:10.742Z,28.22
2023-05-08T07:37:40.371Z,27.88
2023-05-08T07:40:08.338Z,27.52
2023-05-08T07:42:43.248Z,27.27
2023-05-08T07:45:11.459Z,26.94
2023-05-08T07:47:39.216Z,27.13
2023-05-08T07:50:06.530Z,26.68
2023-05-08T07:52:33.351Z,26.57
2023-05-08T07:55:00.199Z,27.07
2023-05-08T07:57:26.991Z,27.40
2023-05-08T07:59:53.919Z,26.47
2023-05-08T08:02:20.703Z,26.79
2023-05-08T08:04:49.086Z,26.94
2023-05-08T08:07:16.262Z,26.64
2023-05-08T08:09:43.883Z,26.35
2023-05-08T08:12:10.883Z,25.60
2023-05-08T08:14:38.195Z,24.68
2023-05-08T08:17:05.078Z,24.19
2023-05-08T08:19:32.397Z,24.52
2023-05-08T08:21:59.341Z,25.23
2023-05-08T08:24:28.552Z,24.95
2023-05-08T08:26:56.739Z,24.34
2023-05-08T08:29:24.049Z,24.26
2023-05-08T08:31:50.940Z,23.98
2023-05-08T08:34:17.990Z,23.97
2023-05-08T08:36:44.784Z,24.42
2023-05-08T08:39:14.720Z,24.37
2023-05-08T08:41:42.595Z,24.28
2023-05-08T08:44:09.425Z,24.07
2023-05-08T08:46:39.372Z,24.56
2023-05-08T08:49:07.793Z,24.05
2023-05-08T08:51:42.862Z,24.10
2023-05-08T08:54:12.057Z,24.49
2023-05-08T08:56:42.643Z,24.42
2023-05-08T08:59:09.420Z,23.75
2023-05-08T09:01:38.820Z,24.66
2023-05-08T09:04:06.216Z,25.09
2023-05-08T09:06:36.777Z,24.98
2023-05-08T09:09:04.457Z,23.26
2023-05-08T09:11:32.745Z,23.12
2023-05-08T09:13:59.605Z,23.13
2023-05-08T09:16:27.497Z,23.29
2023-05-08T09:18:55.669Z,24.03
2023-05-08T09:21:22.855Z,23.90
2023-05-08T09:23:59.046Z,23.25
2023-05-08T09:26:33.440Z,22.98
2023-05-08T09:29:17.858Z,23.62
2023-05-08T09:31:46.168Z,23.67
2023-05-08T09:34:27.936Z,23.93
2023-05-08T09:36:55.606Z,23.56
2023-05-08T09:39:25.965Z,23.22
2023-05-08T09:42:03.964Z,23.58
2023-05-08T09:44:46.685Z,23.10
2023-05-08T09:47:14.132Z,23.45
2023-05-08T09:50:01.679Z,23.16
2023-05-08T09:52:29.197Z,22.85
2023-05-08T09:55:09.318Z,22.41
2023-05-08T09:57:38.788Z,22.75
2023-05-08T10:00:08.596Z,22.96
2023-05-08T10:03:07.143Z,22.41
2023-05-08T10:05:38.731Z,22.09
2023-05-08T10:08:22.514Z,21.80
2023-05-08T10:10:49.737Z,21.52
2023-05-08T10:13:17.643Z,21.86
2023-05-08T10:15:44.679Z,22.16
2023-05-08T10:18:12.015Z,22.15
2023-05-08T10:20:40.197Z,21.95
2023-05-08T10:23:10.937Z,22.06
2023-05-08T10:25:55.017Z,22.44
2023-05-08T10:28:40.960Z,22.03
2023-05-08T10:31:07.927Z,22.37
2023-05-08T10:33:36.998Z,22.05
2023-05-08T10:36:04.385Z,22.03
2023-05-08T10:38:31.350Z,22.32
2023-05-08T10:41:01.772Z,21.99
2023-05-08T10:43:33.333Z,22.44
2023-05-08T10:46:18.246Z,21.35
2023-05-08T10:49:10.053Z,20.92
2023-05-08T10:51:40.112Z,20.64
2023-05-08T10:54:23.816Z,20.88
2023-05-08T10:56:50.663Z,20.95
2023-05-08T10:59:19.164Z,20.82
2023-05-08T11:01:49.260Z,21.13
2023-05-08T11:04:22.006Z,21.40
2023-05-08T11:06:52.479Z,21.17
2023-05-08T11:09:26.548Z,21.47
2023-05-08T11:12:29.077Z,21.61
2023-05-08T11:15:06.207Z,21.56
2023-05-08T11:17:33.661Z,21.54
2023-05-08T11:20:05.299Z,21.07
2023-05-08T11:22:35.208Z,20.77
2023-05-08T11:25:09.711Z,21.13
2023-05-08T11:27:49.286Z,21.08
2023-05-08T11:30:46.690Z,21.22
2023-05-08T11:33:16.197Z,21.63
2023-05-08T11:35:56.249Z,21.57
2023-05-08T11:38:31.636Z,21.74
2023-05-08T11:41:03.324Z,21.48
2023-05-08T11:43:36.277Z,21.60
2023-05-08T11:46:08.091Z,21.73
2023-05-08T11:48:35.077Z,21.46
2023-05-08T11:51:02.659Z,21.55
2023-05-08T11:53:32.711Z,22.10
2023-05-08T11:56:00.355Z,21.70
2023-05-08T11:58:27.253Z,21.49
2023-05-08T12:00:57.293Z,21.33
2023-05-08T12:03:25.599Z,21.26
2023-05-08T12:05:57.260Z,21.30
2023-05-08T12:08:26.297Z,21.13
2023-05-08T12:10:56.802Z,21.12
2023-05-08T12:13:28.479Z,21.22
2023-05-08T12:15:57.233Z,21.01
2023-05-08T12:18:30.181Z,21.99
2023-05-08T12:21:00.418Z,22.26
2023-05-08T12:23:29.591Z,22.21
2023-05-08T12:26:01.447Z,21.82
2023-05-08T12:28:30.377Z,22.00
2023-05-08T12:30:58.414Z,21.64
2023-05-08T12:33:25.730Z,21.66
2023-05-08T12:35:52.936Z,21.50
2023-05-08T12:38:24.521Z,21.63
2023-05-08T12:40:58.112Z,21.62
2023-05-08T12:43:34.607Z,21.69
2023-05-08T12:46:03.476Z,21.85
2023-05-08T12:48:31.155Z,21.76
2023-05-08T12:51:03.544Z,22.30
2023-05-08T12:53:32.520Z,21.90
2023-05-08T12:56:05.628Z,21.74
2023-05-08T12:58:36.416Z,21.80
2023-05-08T13:01:05.043Z,21.13
2023-05-08T13:03:34.462Z,20.95
2023-05-08T13:06:01.641Z,20.84
2023-05-08T13:08:34.672Z,20.81
2023-05-08T13:11:02.586Z,20.87
2023-05-08T13:13:31.050Z,20.99
2023-05-08T13:16:07.971Z,21.23
2023-05-08T13:18:36.420Z,21.54
2023-05-08T13:21:03.809Z,21.07
2023-05-08T13:23:31.166Z,21.03
2023-05-08T13:25:58.049Z,20.64
2023-05-08T13:28:24.981Z,20.24
2023-05-08T13:30:52.567Z,20.65
2023-05-08T13:33:19.863Z,20.83
2023-05-08T13:35:46.703Z,20.74
2023-05-08T13:38:13.590Z,20.02
2023-05-08T13:40:40.583Z,20.08
2023-05-08T13:43:07.608Z,20.06
2023-05-08T13:45:35.208Z,19.60
2023-05-08T13:48:05.329Z,19.21
2023-05-08T13:50:34.017Z,19.06
2023-05-08T13:53:01.409Z,19.05
2023-05-08T13:55:30.008Z,19.13
2023-05-08T13:57:57.373Z,19.30
2023-05-08T14:00:26.683Z,19.33
2023-05-08T14:02:55.270Z,19.42
2023-05-08T14:05:22.419Z,19.74
2023-05-08T14:07:49.297Z,19.78
2023-05-08T14:10:16.795Z,19.63
2023-05-08T14:12:46.161Z,19.55
2023-05-08T14:15:13.445Z,19.91
2023-05-08T14:17:41.915Z,19.98
2023-05-08T14:20:11.618Z,20.10
2023-05-08T14:22:39.752Z,19.95
2023-05-08T14:25:15.788Z,19.80
2023-05-08T14:27:43.024Z,19.48
2023-05-08T14:30:10.506Z,19.09
2023-05-08T14:32:38.863Z,19.34
2023-05-08T14:35:06.258Z,19.28
2023-05-08T14:37:33.564Z,19.23
2023-05-08T14:40:00.454Z,19.54
2023-05-08T14:42:27.480Z,19.71
2023-05-08T14:44:55.499Z,19.94
2023-05-08T14:47:23.043Z,19.76
2023-05-08T14:49:50.042Z,19.79
2023-05-08T14:52:16.915Z,19.99
2023-05-08T14:54:44.105Z,19.84
2023-05-08T14:57:11.107Z,19.95
2023-05-08T14:59:41.697Z,19.67
2023-05-08T15:02:17.359Z,19.28
2023-05-08T15:04:48.100Z,19.46
2023-05-08T15:07:15.675Z,19.11
2023-05-08T15:09:43.397Z,19.05
2023-05-08T15:12:11.964Z,19.51
2023-05-08T15:14:43.718Z,19.52
2023-05-08T15:17:14.784Z,19.43
2023-05-08T15:19:45.907Z,19.46
2023-05-08T15:22:13.195Z,19.82
2023-05-08T15:24:41.208Z,20.23
2023-05-08T15:27:09.573Z,20.45
2023-05-08T15:29:39.370Z,20.25
2023-05-08T15:32:06.481Z,20.10
2023-05-08T15:34:34.795Z,20.21
2023-05-08T15:37:01.999Z,20.47
2023-05-08T15:39:29.846Z,20.53
2023-05-08T15:41:58.467Z,20.41
2023-05-08T15:44:31.139Z,20.50
2023-05-08T15:47:05.391Z,20.40
2023-05-08T15:49:36.772Z,20.52
2023-05-08T15:52:08.647Z,20.67
2023-05-08T15:54:37.504Z,20.60
2023-05-08T15:57:08.473Z,20.65
2023-05-08T15:59:42.611Z,20.81
2023-05-08T16:02:21.452Z,20.98
2023-05-08T16:05:01.989Z,21.00
2023-05-08T16:07:42.490Z,20.88
2023-05-08T16:10:31.371Z,21.06
2023-05-08T16:15:54.474Z,21.49
2023-05-08T16:18:32.155Z,21.46
2023-05-08T16:21:12.957Z,21.69
2023-05-08T16:23:44.767Z,21.75
2023-05-08T16:26:13.675Z,21.80
2023-05-08T16:28:40.626Z,22.12
2023-05-08T16:31:08.999Z,22.11
2023-05-08T16:33:35.943Z,22.20
2023-05-08T16:36:03.030Z,22.23
2023-05-08T16:38:30.783Z,22.30
2023-05-08T16:41:04.194Z,22.35
2023-05-08T16:43:31.283Z,22.35
2023-05-08T16:45:59.478Z,22.52
2023-05-08T16:48:27.514Z,22.84
2023-05-08T16:50:55.624Z,22.85
2023-05-08T16:53:22.615Z,23.19
2023-05-08T16:55:49.588Z,23.55
2023-05-08T16:58:16.570Z,23.70
2023-05-08T17:00:44.365Z,23.95
2023-05-08T17:03:13.712Z,24.09
2023-05-08T17:05:41.488Z,24.12
2023-05-08T17:08:08.779Z,24.23
2023-05-08T17:10:35.776Z,24.43
2023-05-08T17:13:02.864Z,24.47
2023-05-08T17:15:30.150Z,24.68
2023-05-08T17:17:58.311Z,24.94
2023-05-08T17:20:27.773Z,25.02
2023-05-08T17:22:55.103Z,25.01
2023-05-08T17:25:22.737Z,25.30
2023-05-08T17:27:50.991Z,25.46
2023-05-08T17:30:18.253Z,25.53
2023-05-08T17:32:52.307Z,25.68
2023-05-08T17:35:19.305Z,25.92
2023-05-08T17:37:46.463Z,26.03
2023-05-08T17:40:14.237Z,26.12
2023-05-08T17:42:41.593Z,26.24
2023-05-08T17:45:08.794Z,26.40
2023-05-08T17:47:36.946Z,26.59
2023-05-08T17:50:06.019Z,26.67
2023-05-08T17:52:35.225Z,26.88
2023-05-08T17:55:06.918Z,26.78
2023-05-08T17:57:36.304Z,27.00
2023-05-08T18:00:04.670Z,27.13
2023-05-08T18:02:36.353Z,27.20
2023-05-08T18:05:03.842Z,27.48
2023-05-08T18:07:34.347Z,27.56
2023-05-08T18:10:01.476Z,27.68
2023-05-08T18:12:32.067Z,27.86
2023-05-08T18:15:00.407Z,27.94
2023-05-08T18:17:28.975Z,28.17
2023-05-08T18:19:55.987Z,28.39
2023-05-08T18:22:23.060Z,28.52
2023-05-08T18:24:52.580Z,28.64
2023-05-08T18:27:22.975Z,28.99
2023-05-08T18:29:54.001Z,29.04
2023-05-08T18:32:21.121Z,29.15
2023-05-08T18:34:53.533Z,29.12
2023-05-08T18:37:22.561Z,29.27
2023-05-08T18:39:52.355Z,29.44
2023-05-08T18:42:19.445Z,29.52
2023-05-08T18:44:46.570Z,29.56
2023-05-08T18:47:15.821Z,29.71
2023-05-08T18:49:45.096Z,29.66
2023-05-08T18:52:14.287Z,29.71
2023-05-08T18:54:41.394Z,29.80
2023-05-08T18:57:08.414Z,29.93
2023-05-08T18:59:46.314Z,29.92
2023-05-08T19:02:20.789Z,29.90
2023-05-08T19:04:47.913Z,29.92
2023-05-08T19:07:20.777Z,29.97
2023-05-08T19:09:51.097Z,30.00
2023-05-08T19:12:20.827Z,29.92
2023-05-08T19:14:50.762Z,30.00
2023-05-08T19:17:21.456Z,30.09
2023-05-08T19:19:52.665Z,29.96
2023-05-08T19:22:25.663Z,29.89
2023-05-08T19:24:52.517Z,29.86
2023-05-08T19:27:21.897Z,30.09
2023-05-08T19:29:48.740Z,29.99
2023-05-08T19:32:16.480Z,29.97
2023-05-08T19:34:43.433Z,30.18
2023-05-08T19:37:10.280Z,30.09
2023-05-08T19:39:37.199Z,30.16
2023-05-08T19:42:04.932Z,29.98
2023-05-08T19:44:34.629Z,30.22
2023-05-08T19:47:04.268Z,30.07
2023-05-08T19:49:31.519Z,29.95
2023-05-08T19:52:01.933Z,29.98
2023-05-08T19:54:34.537Z,30.13
2023-05-08T19:57:03.245Z,30.01
2023-05-08T19:59:30.277Z,30.08
2023-05-08T20:02:13.662Z,30.17
2023-05-08T20:07:14.435Z,30.20
2023-05-08T20:09:43.851Z,30.35
2023-05-08T20:12:11.257Z,30.54
2023-05-08T20:14:38.248Z,30.64
2023-05-08T20:17:05.368Z,30.60
2023-05-08T20:19:33.362Z,30.57
2023-05-08T20:22:02.892Z,30.61
2023-05-08T20:24:31.279Z,30.46
2023-05-08T20:26:58.277Z,30.53
2023-05-08T20:29:25.942Z,30.73
2023-05-08T20:31:54.560Z,30.57
2023-05-08T20:34:25.196Z,30.58
2023-05-08T20:36:57.286Z,30.60
2023-05-08T20:39:25.990Z,30.61
2023-05-08T20:41:53.818Z,30.62
2023-05-08T20:44:20.692Z,30.57
2023-05-08T20:46:47.568Z,30.56
2023-05-08T20:49:16.769Z,30.68
2023-05-08T20:51:45.873Z,30.67
2023-05-08T20:54:12.807Z,30.73
2023-05-08T20:56:41.601Z,30.86
2023-05-08T20:59:11.136Z,30.84
2023-05-08T21:01:38.534Z,30.95
2023-05-08T21:04:05.652Z,30.96
2023-05-08T21:06:33.759Z,31.15
2023-05-08T21:09:00.677Z,31.19
2023-05-08T21:11:27.564Z,31.35
2023-05-08T21:13:54.542Z,31.27
2023-05-08T21:16:22.807Z,31.34
2023-05-08T21:18:50.832Z,31.21
2023-05-08T21:21:19.563Z,31.44
2023-05-08T21:23:46.457Z,31.49
2023-05-08T21:26:13.369Z,31.45
2023-05-08T21:28:40.353Z,31.40
2023-05-08T21:31:07.696Z,31.57
2023-05-08T21:33:36.212Z,31.58
2023-05-08T21:36:03.135Z,31.77
2023-05-08T21:38:30.411Z,31.69
2023-05-08T21:40:57.306Z,31.86
2023-05-08T21:43:24.180Z,31.83
2023-05-08T21:45:51.071Z,31.97
2023-05-08T21:48:18.002Z,32.01
2023-05-08T21:50:45.323Z,31.97
2023-05-08T21:53:12.264Z,32.14
2023-05-08T21:55:39.319Z,32.00
2023-05-08T21:58:06.570Z,32.05
2023-05-08T22:00:34.647Z,31.95
2023-05-08T22:03:01.684Z,31.93
2023-05-08T22:05:28.914Z,31.99
2023-05-08T22:07:55.873Z,32.08
2023-05-08T22:10:25.009Z,32.10
2023-05-08T22:12:51.913Z,32.11
2023-05-08T22:15:29.035Z,32.19
2023-05-08T22:17:57.208Z,32.16
2023-05-08T22:20:24.129Z,32.17
2023-05-08T22:22:51.165Z,32.45
2023-05-08T22:25:18.148Z,32.52
2023-05-08T22:27:45.626Z,32.51
2023-05-08T22:30:12.898Z,32.53
2023-05-08T22:32:40.481Z,32.65
2023-05-08T22:35:07.806Z,32.62
2023-05-08T22:37:34.909Z,32.53
2023-05-08T22:40:03.087Z,32.63
2023-05-08T22:42:30.616Z,32.68
2023-05-08T22:44:57.576Z,32.69
2023-05-08T22:47:25.514Z,32.63
2023-05-08T22:49:54.644Z,32.66
2023-05-08T22:52:21.543Z,32.79
2023-05-08T22:54:48.862Z,32.66
2023-05-08T22:57:15.714Z,32.69
2023-05-08T22:59:42.831Z,32.68
2023-05-08T23:02:09.694Z,32.59
2023-05-08T23:04:37.843Z,32.57
2023-05-08T23:07:05.424Z,32.65
2023-05-08T23:09:32.461Z,32.68
2023-05-08T23:11:59.336Z,32.74
2023-05-08T23:14:26.239Z,32.65
2023-05-08T23:16:53.176Z,32.80
2023-05-08T23:19:20.144Z,32.66
2023-05-08T23:21:47.012Z,32.83
2023-05-08T23:24:13.864Z,32.92
2023-05-08T23:26:42.110Z,32.80
2023-05-08T23:29:09.291Z,32.87
2023-05-08T23:31:36.258Z,33.01
2023-05-08T23:34:03.421Z,32.95
2023-05-08T23:36:32.551Z,32.94
2023-05-08T23:38:59.374Z,33.11
2023-05-08T23:41:26.521Z,33.22
2023-05-08T23:43:54.269Z,33.46
2023-05-08T23:46:21.126Z,33.40
2023-05-08T23:48:48.247Z,33.36
2023-05-08T23:51:15.930Z,33.39
2023-05-08T23:53:43.595Z,33.60
2023-05-08T23:56:10.516Z,33.68
2023-05-08T23:58:38.167Z,33.78
